sensor_id;sensor_type;location;lat;lon;timestamp;pressure;altitude;pressure_sealevel;temperature;humidity
24306;BME280;12423;48.768;8.850;2023-03-26T00:01:57;96499.56;;;6.82;100.00
24306;BME280;12423;48.768;8.850;2023-03-26T00:03:58;96483.75;;;6.80;100.00
24306;BME280;12423;48.768;8.850;2023-03-26T00:06:08;96495.22;;;6.81;100.00
24306;BME280;12423;48.768;8.850;2023-03-26T00:08:09;96499.44;;;6.83;100.00
24306;BME280;12423;48.768;8.850;2023-03-26T00:10:10;96506.94;;;6.90;100.00
24306;BME280;12423;48.768;8.850;2023-03-26T00:12:11;96497.50;;;6.86;100.00
24306;BME280;12423;48.768;8.850;2023-03-26T00:14:12;96503.91;;;6.83;100.00
24306;BME280;12423;48.768;8.850;2023-03-26T00:16:18;96500.88;;;6.88;100.00
24306;BME280;12423;48.768;8.850;2023-03-26T00:18:20;96501.84;;;6.98;100.00
24306;BME280;12423;48.768;8.850;2023-03-26T00:20:24;96498.22;;;6.99;100.00
24306;BME280;12423;48.768;8.850;2023-03-26T00:22:26;96497.25;;;6.89;100.00
24306;BME280;12423;48.768;8.850;2023-03-26T00:24:26;96498.97;;;6.90;100.00
24306;BME280;12423;48.768;8.850;2023-03-26T00:26:30;96503.53;;;6.99;100.00
24306;BME280;12423;48.768;8.850;2023-03-26T00:28:31;96495.91;;;7.06;100.00
24306;BME280;12423;48.768;8.850;2023-03-26T00:30:33;96494.59;;;7.00;100.00
24306;BME280;12423;48.768;8.850;2023-03-26T00:32:35;96503.75;;;7.07;100.00
24306;BME280;12423;48.768;8.850;2023-03-26T00:34:36;96498.81;;;7.03;100.00
24306;BME280;12423;48.768;8.850;2023-03-26T00:36:37;96493.38;;;6.93;100.00
24306;BME280;12423;48.768;8.850;2023-03-26T00:38:38;96499.69;;;6.80;100.00
24306;BME280;12423;48.768;8.850;2023-03-26T00:40:39;96489.19;;;6.68;100.00
24306;BME280;12423;48.768;8.850;2023-03-26T00:42:43;96490.28;;;6.65;100.00
24306;BME280;12423;48.768;8.850;2023-03-26T00:44:44;96491.50;;;6.61;100.00
24306;BME280;12423;48.768;8.850;2023-03-26T00:46:45;96492.94;;;6.54;100.00
24306;BME280;12423;48.768;8.850;2023-03-26T00:48:47;96485.81;;;6.66;100.00
24306;BME280;12423;48.768;8.850;2023-03-26T00:50:49;96480.03;;;6.72;100.00
24306;BME280;12423;48.768;8.850;2023-03-26T00:52:50;96476.63;;;6.70;100.00
24306;BME280;12423;48.768;8.850;2023-03-26T00:54:51;96470.00;;;6.53;100.00
24306;BME280;12423;48.768;8.850;2023-03-26T00:56:52;96470.25;;;6.50;100.00
24306;BME280;12423;48.768;8.850;2023-03-26T00:58:55;96467.38;;;6.53;100.00
24306;BME280;12423;48.768;8.850;2023-03-26T01:01:00;96472.91;;;6.38;100.00
24306;BME280;12423;48.768;8.850;2023-03-26T01:03:04;96473.16;;;6.35;100.00
24306;BME280;12423;48.768;8.850;2023-03-26T01:05:50;96469.63;;;6.23;100.00
24306;BME280;12423;48.768;8.850;2023-03-26T01:07:52;96459.16;;;6.11;100.00
24306;BME280;12423;48.768;8.850;2023-03-26T01:09:58;96458.16;;;6.00;100.00
24306;BME280;12423;48.768;8.850;2023-03-26T01:12:01;96453.84;;;5.99;100.00
24306;BME280;12423;48.768;8.850;2023-03-26T01:14:09;96447.53;;;5.89;100.00
24306;BME280;12423;48.768;8.850;2023-03-26T01:16:22;96452.69;;;5.90;100.00
24306;BME280;12423;48.768;8.850;2023-03-26T01:18:24;96445.09;;;5.86;100.00
24306;BME280;12423;48.768;8.850;2023-03-26T01:20:26;96433.16;;;5.80;100.00
24306;BME280;12423;48.768;8.850;2023-03-26T01:22:30;96441.22;;;5.79;100.00
24306;BME280;12423;48.768;8.850;2023-03-26T01:24:33;96421.47;;;5.83;100.00
24306;BME280;12423;48.768;8.850;2023-03-26T01:26:37;96430.13;;;5.73;100.00
24306;BME280;12423;48.768;8.850;2023-03-26T01:28:40;96431.72;;;5.76;100.00
24306;BME280;12423;48.768;8.850;2023-03-26T01:33:08;96430.84;;;5.76;100.00
24306;BME280;12423;48.768;8.850;2023-03-26T01:38:05;96413.03;;;5.78;100.00
24306;BME280;12423;48.768;8.850;2023-03-26T01:40:27;96403.41;;;5.77;100.00
24306;BME280;12423;48.768;8.850;2023-03-26T01:42:47;96400.41;;;5.81;100.00
24306;BME280;12423;48.768;8.850;2023-03-26T01:44:55;96399.19;;;5.85;100.00
24306;BME280;12423;48.768;8.850;2023-03-26T01:46:59;96387.50;;;5.77;100.00
24306;BME280;12423;48.768;8.850;2023-03-26T01:49:03;96380.25;;;5.79;100.00
24306;BME280;12423;48.768;8.850;2023-03-26T01:51:05;96380.13;;;5.80;100.00
24306;BME280;12423;48.768;8.850;2023-03-26T01:53:08;96379.91;;;5.83;100.00
24306;BME280;12423;48.768;8.850;2023-03-26T01:55:11;96383.13;;;5.76;100.00
24306;BME280;12423;48.768;8.850;2023-03-26T02:02:03;96362.91;;;5.75;100.00
24306;BME280;12423;48.768;8.850;2023-03-26T02:06:31;96337.59;;;5.70;100.00
24306;BME280;12423;48.768;8.850;2023-03-26T02:08:57;96343.66;;;5.72;100.00
24306;BME280;12423;48.768;8.850;2023-03-26T02:11:01;96337.72;;;5.69;100.00
24306;BME280;12423;48.768;8.850;2023-03-26T02:13:04;96333.06;;;5.72;100.00
24306;BME280;12423;48.768;8.850;2023-03-26T02:15:06;96328.09;;;5.68;100.00
24306;BME280;12423;48.768;8.850;2023-03-26T02:17:09;96325.22;;;5.71;100.00
24306;BME280;12423;48.768;8.850;2023-03-26T02:19:10;96322.81;;;5.79;100.00
24306;BME280;12423;48.768;8.850;2023-03-26T02:21:17;96320.06;;;5.81;100.00
24306;BME280;12423;48.768;8.850;2023-03-26T02:23:20;96329.41;;;5.73;100.00
24306;BME280;12423;48.768;8.850;2023-03-26T02:25:21;96331.81;;;5.65;100.00
24306;BME280;12423;48.768;8.850;2023-03-26T02:27:24;96332.53;;;5.67;100.00
24306;BME280;12423;48.768;8.850;2023-03-26T02:29:25;96332.78;;;5.76;100.00
24306;BME280;12423;48.768;8.850;2023-03-26T02:31:27;96324.84;;;5.64;100.00
24306;BME280;12423;48.768;8.850;2023-03-26T02:33:29;96327.13;;;5.69;100.00
24306;BME280;12423;48.768;8.850;2023-03-26T02:35:30;96323.28;;;5.73;100.00
24306;BME280;12423;48.768;8.850;2023-03-26T02:37:34;96317.75;;;5.76;100.00
24306;BME280;12423;48.768;8.850;2023-03-26T02:39:43;96320.06;;;5.81;100.00
24306;BME280;12423;48.768;8.850;2023-03-26T02:41:54;96322.69;;;5.81;100.00
24306;BME280;12423;48.768;8.850;2023-03-26T02:43:55;96316.28;;;5.83;100.00
24306;BME280;12423;48.768;8.850;2023-03-26T02:46:03;96311.94;;;5.82;100.00
24306;BME280;12423;48.768;8.850;2023-03-26T02:48:23;96314.75;;;5.81;100.00
24306;BME280;12423;48.768;8.850;2023-03-26T02:50:47;96305.94;;;5.80;100.00
24306;BME280;12423;48.768;8.850;2023-03-26T02:53:08;96303.41;;;5.79;100.00
24306;BME280;12423;48.768;8.850;2023-03-26T02:55:13;96291.84;;;5.80;100.00
24306;BME280;12423;48.768;8.850;2023-03-26T02:57:15;96285.09;;;5.76;100.00
24306;BME280;12423;48.768;8.850;2023-03-26T02:59:34;96284.13;;;5.77;100.00
24306;BME280;12423;48.768;8.850;2023-03-26T03:01:54;96276.41;;;5.73;100.00
24306;BME280;12423;48.768;8.850;2023-03-26T03:03:56;96275.72;;;5.71;100.00
24306;BME280;12423;48.768;8.850;2023-03-26T03:06:17;96271.13;;;5.73;100.00
24306;BME280;12423;48.768;8.850;2023-03-26T03:08:26;96261.50;;;5.72;100.00
24306;BME280;12423;48.768;8.850;2023-03-26T03:10:58;96263.28;;;5.72;100.00
24306;BME280;12423;48.768;8.850;2023-03-26T03:13:11;96255.56;;;5.69;100.00
24306;BME280;12423;48.768;8.850;2023-03-26T03:15:12;96255.22;;;5.73;100.00
24306;BME280;12423;48.768;8.850;2023-03-26T03:17:13;96254.50;;;5.71;100.00
24306;BME280;12423;48.768;8.850;2023-03-26T03:19:14;96257.16;;;5.71;100.00
24306;BME280;12423;48.768;8.850;2023-03-26T03:21:15;96249.69;;;5.77;100.00
24306;BME280;12423;48.768;8.850;2023-03-26T03:23:16;96238.84;;;5.80;100.00
24306;BME280;12423;48.768;8.850;2023-03-26T03:25:17;96231.59;;;5.82;100.00
24306;BME280;12423;48.768;8.850;2023-03-26T03:27:22;96224.13;;;5.87;100.00
24306;BME280;12423;48.768;8.850;2023-03-26T03:29:35;96223.88;;;5.90;100.00
24306;BME280;12423;48.768;8.850;2023-03-26T03:32:23;96219.03;;;5.95;100.00
24306;BME280;12423;48.768;8.850;2023-03-26T03:34:30;96216.78;;;6.02;100.00
24306;BME280;12423;48.768;8.850;2023-03-26T03:36:31;96226.19;;;6.06;100.00
24306;BME280;12423;48.768;8.850;2023-03-26T03:38:40;96219.91;;;6.07;100.00
24306;BME280;12423;48.768;8.850;2023-03-26T03:40:43;96221.94;;;6.15;100.00
24306;BME280;12423;48.768;8.850;2023-03-26T03:42:45;96215.09;;;6.12;100.00
24306;BME280;12423;48.768;8.850;2023-03-26T03:44:48;96212.78;;;6.19;100.00
24306;BME280;12423;48.768;8.850;2023-03-26T03:47:12;96208.19;;;6.21;100.00
24306;BME280;12423;48.768;8.850;2023-03-26T03:49:15;96213.94;;;6.26;100.00
24306;BME280;12423;48.768;8.850;2023-03-26T03:51:17;96210.34;;;6.27;100.00
24306;BME280;12423;48.768;8.850;2023-03-26T03:53:22;96203.34;;;6.26;100.00
24306;BME280;12423;48.768;8.850;2023-03-26T03:55:26;96199.13;;;6.23;100.00
24306;BME280;12423;48.768;8.850;2023-03-26T03:57:28;96199.25;;;6.22;100.00
24306;BME280;12423;48.768;8.850;2023-03-26T03:59:34;96195.28;;;6.16;100.00
24306;BME280;12423;48.768;8.850;2023-03-26T04:01:38;96189.53;;;6.11;100.00
24306;BME280;12423;48.768;8.850;2023-03-26T04:03:47;96187.38;;;6.05;100.00
24306;BME280;12423;48.768;8.850;2023-03-26T04:05:50;96180.75;;;5.99;100.00
24306;BME280;12423;48.768;8.850;2023-03-26T04:07:55;96190.47;;;6.10;100.00
24306;BME280;12423;48.768;8.850;2023-03-26T04:09:56;96189.19;;;6.04;100.00
24306;BME280;12423;48.768;8.850;2023-03-26T04:12:02;96185.69;;;6.04;100.00
24306;BME280;12423;48.768;8.850;2023-03-26T04:14:06;96184.97;;;6.02;100.00
24306;BME280;12423;48.768;8.850;2023-03-26T04:16:29;96172.31;;;5.94;100.00
24306;BME280;12423;48.768;8.850;2023-03-26T04:18:30;96171.44;;;5.94;100.00
24306;BME280;12423;48.768;8.850;2023-03-26T04:20:38;96164.84;;;5.88;100.00
24306;BME280;12423;48.768;8.850;2023-03-26T04:22:42;96160.50;;;5.87;100.00
24306;BME280;12423;48.768;8.850;2023-03-26T04:24:44;96141.72;;;5.90;100.00
24306;BME280;12423;48.768;8.850;2023-03-26T04:26:51;96144.72;;;5.97;100.00
24306;BME280;12423;48.768;8.850;2023-03-26T04:28:59;96139.53;;;5.95;100.00
24306;BME280;12423;48.768;8.850;2023-03-26T04:31:04;96145.06;;;5.92;100.00
24306;BME280;12423;48.768;8.850;2023-03-26T04:33:11;96150.50;;;5.90;100.00
24306;BME280;12423;48.768;8.850;2023-03-26T04:35:16;96147.47;;;5.95;100.00
24306;BME280;12423;48.768;8.850;2023-03-26T04:37:35;96139.44;;;5.97;100.00
24306;BME280;12423;48.768;8.850;2023-03-26T04:39:43;96126.25;;;6.06;100.00
24306;BME280;12423;48.768;8.850;2023-03-26T04:42:04;96121.66;;;6.08;100.00
24306;BME280;12423;48.768;8.850;2023-03-26T04:44:16;96116.69;;;6.15;100.00
24306;BME280;12423;48.768;8.850;2023-03-26T04:46:28;96108.75;;;6.15;100.00
24306;BME280;12423;48.768;8.850;2023-03-26T04:48:40;96102.84;;;6.12;100.00
24306;BME280;12423;48.768;8.850;2023-03-26T04:50:43;96117.03;;;6.22;100.00
24306;BME280;12423;48.768;8.850;2023-03-26T04:52:45;96110.81;;;6.12;100.00
24306;BME280;12423;48.768;8.850;2023-03-26T04:55:54;96101.00;;;6.02;100.00
24306;BME280;12423;48.768;8.850;2023-03-26T04:57:43;96107.81;;;6.05;100.00
24306;BME280;12423;48.768;8.850;2023-03-26T04:59:55;96105.31;;;6.03;100.00
24306;BME280;12423;48.768;8.850;2023-03-26T05:01:57;96108.06;;;6.02;100.00
24306;BME280;12423;48.768;8.850;2023-03-26T05:04:00;96103.75;;;6.01;100.00
24306;BME280;12423;48.768;8.850;2023-03-26T05:06:02;96102.66;;;6.03;100.00
24306;BME280;12423;48.768;8.850;2023-03-26T05:08:04;96099.63;;;6.08;100.00
24306;BME280;12423;48.768;8.850;2023-03-26T05:10:05;96090.84;;;6.07;100.00
24306;BME280;12423;48.768;8.850;2023-03-26T05:12:13;96083.13;;;6.04;100.00
24306;BME280;12423;48.768;8.850;2023-03-26T05:14:26;96086.13;;;6.11;100.00
24306;BME280;12423;48.768;8.850;2023-03-26T05:16:28;96073.69;;;6.12;100.00
24306;BME280;12423;48.768;8.850;2023-03-26T05:18:34;96067.06;;;6.17;100.00
24306;BME280;12423;48.768;8.850;2023-03-26T05:20:36;96058.22;;;6.17;100.00
24306;BME280;12423;48.768;8.850;2023-03-26T05:22:40;96056.56;;;6.16;100.00
24306;BME280;12423;48.768;8.850;2023-03-26T05:24:49;96053.13;;;6.04;100.00
24306;BME280;12423;48.768;8.850;2023-03-26T05:26:50;96052.66;;;5.99;100.00
24306;BME280;12423;48.768;8.850;2023-03-26T05:28:56;96048.78;;;6.03;100.00
24306;BME280;12423;48.768;8.850;2023-03-26T05:31:00;96041.09;;;6.00;100.00
24306;BME280;12423;48.768;8.850;2023-03-26T05:33:07;96038.78;;;6.06;100.00
24306;BME280;12423;48.768;8.850;2023-03-26T05:35:18;96051.25;;;6.16;100.00
24306;BME280;12423;48.768;8.850;2023-03-26T05:37:20;96047.19;;;6.12;100.00
24306;BME280;12423;48.768;8.850;2023-03-26T05:39:35;96047.69;;;6.05;100.00
24306;BME280;12423;48.768;8.850;2023-03-26T05:41:41;96026.47;;;6.05;100.00
24306;BME280;12423;48.768;8.850;2023-03-26T05:43:43;96024.56;;;6.07;100.00
24306;BME280;12423;48.768;8.850;2023-03-26T05:45:47;96014.06;;;6.06;100.00
24306;BME280;12423;48.768;8.850;2023-03-26T05:47:59;96010.19;;;6.10;100.00
24306;BME280;12423;48.768;8.850;2023-03-26T05:50:00;96001.13;;;6.13;100.00
24306;BME280;12423;48.768;8.850;2023-03-26T05:52:01;95994.41;;;6.08;100.00
24306;BME280;12423;48.768;8.850;2023-03-26T05:54:28;95993.56;;;6.08;100.00
24306;BME280;12423;48.768;8.850;2023-03-26T05:56:48;96005.00;;;6.08;100.00
24306;BME280;12423;48.768;8.850;2023-03-26T05:59:07;95987.44;;;6.07;100.00
24306;BME280;12423;48.768;8.850;2023-03-26T06:01:26;95991.25;;;6.15;100.00
24306;BME280;12423;48.768;8.850;2023-03-26T06:03:47;95988.72;;;6.13;100.00
24306;BME280;12423;48.768;8.850;2023-03-26T06:05:52;95975.00;;;6.29;100.00
24306;BME280;12423;48.768;8.850;2023-03-26T06:08:05;95967.22;;;6.37;100.00
24306;BME280;12423;48.768;8.850;2023-03-26T06:10:10;95963.75;;;6.46;100.00
24306;BME280;12423;48.768;8.850;2023-03-26T06:12:12;95958.19;;;6.50;100.00
24306;BME280;12423;48.768;8.850;2023-03-26T06:14:14;95958.75;;;6.53;100.00
24306;BME280;12423;48.768;8.850;2023-03-26T06:16:32;95955.53;;;6.50;100.00
24306;BME280;12423;48.768;8.850;2023-03-26T06:18:47;95960.72;;;6.51;100.00
24306;BME280;12423;48.768;8.850;2023-03-26T06:21:19;95957.22;;;6.51;100.00
24306;BME280;12423;48.768;8.850;2023-03-26T06:23:32;95963.63;;;6.48;100.00
24306;BME280;12423;48.768;8.850;2023-03-26T06:25:44;95957.63;;;6.46;100.00
24306;BME280;12423;48.768;8.850;2023-03-26T06:27:56;95964.50;;;6.49;100.00
24306;BME280;12423;48.768;8.850;2023-03-26T06:30:17;95957.66;;;6.56;100.00
24306;BME280;12423;48.768;8.850;2023-03-26T06:32:27;95954.47;;;6.62;100.00
24306;BME280;12423;48.768;8.850;2023-03-26T06:34:34;95940.22;;;6.63;100.00
24306;BME280;12423;48.768;8.850;2023-03-26T06:36:35;95933.50;;;6.59;100.00
24306;BME280;12423;48.768;8.850;2023-03-26T06:38:36;95930.34;;;6.65;100.00
24306;BME280;12423;48.768;8.850;2023-03-26T06:40:39;95929.22;;;6.68;100.00
24306;BME280;12423;48.768;8.850;2023-03-26T06:42:59;95922.94;;;6.69;100.00
24306;BME280;12423;48.768;8.850;2023-03-26T06:45:23;95913.16;;;6.69;100.00
24306;BME280;12423;48.768;8.850;2023-03-26T06:47:59;95921.81;;;6.71;100.00
24306;BME280;12423;48.768;8.850;2023-03-26T06:50:26;95908.41;;;6.73;100.00
24306;BME280;12423;48.768;8.850;2023-03-26T06:52:46;95907.84;;;6.69;100.00
24306;BME280;12423;48.768;8.850;2023-03-26T06:55:06;95903.97;;;6.73;100.00
24306;BME280;12423;48.768;8.850;2023-03-26T06:57:21;95895.69;;;6.76;100.00
24306;BME280;12423;48.768;8.850;2023-03-26T06:59:40;95898.09;;;6.79;100.00
24306;BME280;12423;48.768;8.850;2023-03-26T07:02:00;95891.38;;;6.75;100.00
24306;BME280;12423;48.768;8.850;2023-03-26T07:04:19;95914.56;;;6.73;100.00
24306;BME280;12423;48.768;8.850;2023-03-26T07:06:39;95880.22;;;6.81;100.00
24306;BME280;12423;48.768;8.850;2023-03-26T07:08:58;95887.19;;;6.82;100.00
24306;BME280;12423;48.768;8.850;2023-03-26T07:11:18;95878.13;;;6.85;100.00
24306;BME280;12423;48.768;8.850;2023-03-26T07:13:38;95877.00;;;6.88;100.00
24306;BME280;12423;48.768;8.850;2023-03-26T07:15:58;95875.88;;;6.80;100.00
24306;BME280;12423;48.768;8.850;2023-03-26T07:18:31;95845.41;;;6.85;100.00
24306;BME280;12423;48.768;8.850;2023-03-26T07:20:33;95846.41;;;6.83;100.00
24306;BME280;12423;48.768;8.850;2023-03-26T07:22:34;95860.78;;;6.71;100.00
24306;BME280;12423;48.768;8.850;2023-03-26T07:24:38;95861.34;;;6.65;100.00
24306;BME280;12423;48.768;8.850;2023-03-26T07:27:16;95859.91;;;6.61;100.00
24306;BME280;12423;48.768;8.850;2023-03-26T07:29:32;95841.63;;;6.58;100.00
24306;BME280;12423;48.768;8.850;2023-03-26T07:36:59;95829.88;;;6.51;100.00
24306;BME280;12423;48.768;8.850;2023-03-26T07:41:50;95837.69;;;6.42;100.00
24306;BME280;12423;48.768;8.850;2023-03-26T07:44:44;95834.34;;;6.40;100.00
24306;BME280;12423;48.768;8.850;2023-03-26T07:49:47;95826.78;;;6.36;100.00
24306;BME280;12423;48.768;8.850;2023-03-26T07:51:49;95829.69;;;6.33;100.00
24306;BME280;12423;48.768;8.850;2023-03-26T07:54:01;95813.66;;;6.34;100.00
24306;BME280;12423;48.768;8.850;2023-03-26T07:57:05;95800.41;;;6.44;100.00
24306;BME280;12423;48.768;8.850;2023-03-26T07:59:28;95809.34;;;6.43;100.00
24306;BME280;12423;48.768;8.850;2023-03-26T08:04:41;95805.31;;;6.49;100.00
24306;BME280;12423;48.768;8.850;2023-03-26T08:07:17;95806.97;;;6.50;100.00
24306;BME280;12423;48.768;8.850;2023-03-26T08:10:08;95800.69;;;6.51;100.00
24306;BME280;12423;48.768;8.850;2023-03-26T08:12:56;95793.59;;;6.61;100.00
24306;BME280;12423;48.768;8.850;2023-03-26T08:17:13;95804.19;;;6.61;100.00
24306;BME280;12423;48.768;8.850;2023-03-26T08:19:47;95799.59;;;6.63;100.00
24306;BME280;12423;48.768;8.850;2023-03-26T08:21:53;95799.16;;;6.58;100.00
24306;BME280;12423;48.768;8.850;2023-03-26T08:24:14;95789.38;;;6.68;100.00
24306;BME280;12423;48.768;8.850;2023-03-26T08:28:36;95789.13;;;6.71;100.00
24306;BME280;12423;48.768;8.850;2023-03-26T08:30:42;95789.69;;;6.85;100.00
24306;BME280;12423;48.768;8.850;2023-03-26T08:33:09;95787.34;;;6.81;100.00
24306;BME280;12423;48.768;8.850;2023-03-26T08:35:11;95783.00;;;6.90;100.00
24306;BME280;12423;48.768;8.850;2023-03-26T08:37:13;95772.66;;;6.87;100.00
24306;BME280;12423;48.768;8.850;2023-03-26T08:39:14;95768.56;;;6.93;100.00
24306;BME280;12423;48.768;8.850;2023-03-26T08:41:28;95776.13;;;6.88;100.00
24306;BME280;12423;48.768;8.850;2023-03-26T08:51:57;95784.91;;;7.17;100.00
24306;BME280;12423;48.768;8.850;2023-03-26T08:54:13;95772.28;;;7.39;100.00
24306;BME280;12423;48.768;8.850;2023-03-26T08:56:28;95786.81;;;7.54;100.00
24306;BME280;12423;48.768;8.850;2023-03-26T08:58:43;95785.28;;;7.42;100.00
24306;BME280;12423;48.768;8.850;2023-03-26T09:10:49;95766.78;;;7.60;100.00
24306;BME280;12423;48.768;8.850;2023-03-26T09:15:47;95757.31;;;8.13;100.00
24306;BME280;12423;48.768;8.850;2023-03-26T09:27:47;95767.88;;;8.96;100.00
24306;BME280;12423;48.768;8.850;2023-03-26T09:32:59;95772.09;;;9.25;100.00
24306;BME280;12423;48.768;8.850;2023-03-26T09:35:32;95762.63;;;9.49;100.00
24306;BME280;12423;48.768;8.850;2023-03-26T09:40:14;95755.84;;;9.89;100.00
24306;BME280;12423;48.768;8.850;2023-03-26T09:42:36;95751.91;;;9.75;100.00
24306;BME280;12423;48.768;8.850;2023-03-26T09:44:55;95757.53;;;9.98;100.00
24306;BME280;12423;48.768;8.850;2023-03-26T09:49:37;95762.66;;;9.57;100.00
24306;BME280;12423;48.768;8.850;2023-03-26T09:54:13;95761.31;;;9.87;100.00
24306;BME280;12423;48.768;8.850;2023-03-26T10:00:55;95749.03;;;10.37;100.00
24306;BME280;12423;48.768;8.850;2023-03-26T10:07:59;95744.78;;;10.85;100.00
24306;BME280;12423;48.768;8.850;2023-03-26T10:12:29;95762.53;;;11.11;100.00
24306;BME280;12423;48.768;8.850;2023-03-26T10:16:59;95736.94;;;11.00;100.00
24306;BME280;12423;48.768;8.850;2023-03-26T10:21:56;95766.03;;;11.12;100.00
24306;BME280;12423;48.768;8.850;2023-03-26T10:24:33;95744.63;;;10.79;100.00
24306;BME280;12423;48.768;8.850;2023-03-26T10:26:59;95741.13;;;10.95;100.00
24306;BME280;12423;48.768;8.850;2023-03-26T10:29:18;95732.94;;;10.72;100.00
24306;BME280;12423;48.768;8.850;2023-03-26T10:31:34;95726.63;;;10.97;100.00
24306;BME280;12423;48.768;8.850;2023-03-26T10:33:53;95743.13;;;10.84;100.00
24306;BME280;12423;48.768;8.850;2023-03-26T10:36:18;95738.47;;;10.95;100.00
24306;BME280;12423;48.768;8.850;2023-03-26T10:38:30;95732.47;;;10.84;100.00
24306;BME280;12423;48.768;8.850;2023-03-26T10:40:58;95750.50;;;11.15;100.00
24306;BME280;12423;48.768;8.850;2023-03-26T10:43:22;95742.13;;;11.10;98.84
24306;BME280;12423;48.768;8.850;2023-03-26T10:46:09;95750.50;;;10.91;100.00
24306;BME280;12423;48.768;8.850;2023-03-26T10:48:29;95752.50;;;11.13;99.83
24306;BME280;12423;48.768;8.850;2023-03-26T10:53:37;95744.97;;;10.92;92.84
24306;BME280;12423;48.768;8.850;2023-03-26T10:55:43;95729.75;;;10.60;89.79
24306;BME280;12423;48.768;8.850;2023-03-26T10:57:55;95739.81;;;11.15;90.46
24306;BME280;12423;48.768;8.850;2023-03-26T11:00:00;95725.03;;;11.69;89.36
24306;BME280;12423;48.768;8.850;2023-03-26T11:04:32;95712.78;;;12.85;85.35
24306;BME280;12423;48.768;8.850;2023-03-26T11:08:51;95710.16;;;14.57;80.90
24306;BME280;12423;48.768;8.850;2023-03-26T11:11:28;95741.81;;;15.13;73.36
24306;BME280;12423;48.768;8.850;2023-03-26T11:15:53;95725.78;;;15.05;68.09
24306;BME280;12423;48.768;8.850;2023-03-26T11:18:34;95720.84;;;14.87;69.35
24306;BME280;12423;48.768;8.850;2023-03-26T11:20:48;95729.13;;;15.57;67.55
24306;BME280;12423;48.768;8.850;2023-03-26T11:27:49;95704.00;;;16.06;62.75
24306;BME280;12423;48.768;8.850;2023-03-26T11:30:01;95698.66;;;16.13;59.87
24306;BME280;12423;48.768;8.850;2023-03-26T11:32:16;95710.81;;;17.05;59.00
24306;BME280;12423;48.768;8.850;2023-03-26T11:34:26;95707.50;;;17.37;58.91
24306;BME280;12423;48.768;8.850;2023-03-26T11:36:36;95702.94;;;17.77;58.65
24306;BME280;12423;48.768;8.850;2023-03-26T11:38:43;95716.03;;;17.40;54.88
24306;BME280;12423;48.768;8.850;2023-03-26T11:40:49;95701.19;;;15.58;59.07
24306;BME280;12423;48.768;8.850;2023-03-26T11:43:13;95696.94;;;17.89;58.83
24306;BME280;12423;48.768;8.850;2023-03-26T11:45:19;95704.50;;;16.78;56.95
24306;BME280;12423;48.768;8.850;2023-03-26T11:47:29;95705.22;;;16.45;56.50
24306;BME280;12423;48.768;8.850;2023-03-26T11:49:32;95700.38;;;16.27;59.10
24306;BME280;12423;48.768;8.850;2023-03-26T11:51:35;95701.91;;;17.65;57.76
24306;BME280;12423;48.768;8.850;2023-03-26T11:53:36;95713.13;;;17.55;54.71
24306;BME280;12423;48.768;8.850;2023-03-26T11:55:52;95700.28;;;17.50;54.44
24306;BME280;12423;48.768;8.850;2023-03-26T11:57:58;95706.53;;;18.43;54.00
24306;BME280;12423;48.768;8.850;2023-03-26T12:00:02;95706.41;;;16.29;52.72
24306;BME280;12423;48.768;8.850;2023-03-26T12:02:23;95707.78;;;15.05;57.69
24306;BME280;12423;48.768;8.850;2023-03-26T12:07:06;95692.13;;;16.35;58.39
24306;BME280;12423;48.768;8.850;2023-03-26T12:09:18;95686.13;;;15.35;56.90
24306;BME280;12423;48.768;8.850;2023-03-26T12:11:27;95685.66;;;14.45;58.94
24306;BME280;12423;48.768;8.850;2023-03-26T12:13:35;95692.84;;;13.78;63.87
24306;BME280;12423;48.768;8.850;2023-03-26T12:15:41;95694.13;;;13.53;65.19
24306;BME280;12423;48.768;8.850;2023-03-26T12:17:44;95701.72;;;13.64;66.53
24306;BME280;12423;48.768;8.850;2023-03-26T12:19:45;95693.28;;;14.27;63.44
24306;BME280;12423;48.768;8.850;2023-03-26T12:21:48;95706.44;;;13.62;65.00
24306;BME280;12423;48.768;8.850;2023-03-26T12:24:02;95712.44;;;13.26;65.75
24306;BME280;12423;48.768;8.850;2023-03-26T12:26:13;95700.41;;;12.84;66.88
24306;BME280;12423;48.768;8.850;2023-03-26T12:28:16;95698.78;;;15.13;71.25
24306;BME280;12423;48.768;8.850;2023-03-26T12:30:23;95692.09;;;15.09;74.82
24306;BME280;12423;48.768;8.850;2023-03-26T12:32:31;95698.06;;;14.46;78.68
24306;BME280;12423;48.768;8.850;2023-03-26T12:34:37;95688.38;;;14.15;81.97
24306;BME280;12423;48.768;8.850;2023-03-26T12:36:39;95690.97;;;13.49;74.97
24306;BME280;12423;48.768;8.850;2023-03-26T12:38:40;95680.09;;;15.61;64.29
24306;BME280;12423;48.768;8.850;2023-03-26T12:40:42;95673.22;;;15.87;56.95
24306;BME280;12423;48.768;8.850;2023-03-26T12:42:51;95663.72;;;17.41;53.88
24306;BME280;12423;48.768;8.850;2023-03-26T12:44:55;95659.44;;;18.12;52.50
24306;BME280;12423;48.768;8.850;2023-03-26T12:47:19;95659.38;;;18.32;47.41
24306;BME280;12423;48.768;8.850;2023-03-26T12:49:20;95662.09;;;18.26;49.01
24306;BME280;12423;48.768;8.850;2023-03-26T12:51:38;95668.34;;;15.97;52.14
24306;BME280;12423;48.768;8.850;2023-03-26T12:53:57;95652.91;;;16.26;54.07
24306;BME280;12423;48.768;8.850;2023-03-26T12:58:33;95651.41;;;18.44;48.67
24306;BME280;12423;48.768;8.850;2023-03-26T13:05:55;95662.03;;;15.55;50.53
24306;BME280;12423;48.768;8.850;2023-03-26T13:08:21;95657.47;;;14.78;55.38
24306;BME280;12423;48.768;8.850;2023-03-26T13:15:07;95645.59;;;14.29;57.42
24306;BME280;12423;48.768;8.850;2023-03-26T13:17:20;95630.41;;;13.85;57.43
24306;BME280;12423;48.768;8.850;2023-03-26T13:19:39;95630.69;;;13.75;60.85
24306;BME280;12423;48.768;8.850;2023-03-26T13:21:54;95630.88;;;13.58;57.99
24306;BME280;12423;48.768;8.850;2023-03-26T13:24:13;95640.94;;;13.41;61.36
24306;BME280;12423;48.768;8.850;2023-03-26T13:28:47;95626.31;;;12.91;60.09
24306;BME280;12423;48.768;8.850;2023-03-26T13:31:09;95628.63;;;12.94;60.76
24306;BME280;12423;48.768;8.850;2023-03-26T13:35:48;95631.59;;;12.99;62.03